Terminal Aerodrome Forecast
Issued by NWS Wilmington, NC

Home | Current Version | Previous Version | Text Only | Print | Product List | Glossary On
Versions: 1 2 3 4 5 6 7 8 9 10 11 12 13
000
FTUS42 KILM 242300
TAFILM
TAF
KILM 242331Z 2500/2524 14004KT P6SM SCT040 SCT250
     FM250700 14003KT P6SM SCT025 BKN040
     FM251000 15004KT P6SM VCSH BKN020 BKN035 BKN080
     FM251400 18011KT P6SM VCSH SCT015 BKN035
     FM251900 20015G25KT 5SM -SHRA BKN020 BKN040
     FM252100 21016G27KT P6SM VCSH SCT020 BKN050=

USA.gov is the U.S. government's official web portal to all federal, state and local government web resources and services.